createdAt,value
2019-05-29T00:00:38.208Z,85.03
2019-05-29T00:03:06.357Z,85.96
2019-05-29T00:05:34.234Z,85.69
2019-05-29T00:08:02.073Z,85.83
2019-05-29T00:10:29.891Z,86.20
2019-05-29T00:12:57.717Z,86.18
2019-05-29T00:15:25.596Z,86.56
2019-05-29T00:17:53.386Z,86.74
2019-05-29T00:20:21.181Z,86.70
2019-05-29T00:22:48.960Z,86.75
2019-05-29T00:25:16.733Z,87.01
2019-05-29T00:27:44.523Z,86.66
2019-05-29T00:30:13.513Z,86.63
2019-05-29T00:32:41.356Z,85.10
2019-05-29T00:35:10.233Z,84.53
2019-05-29T00:37:38.119Z,84.06
2019-05-29T00:40:06.714Z,82.90
2019-05-29T00:42:34.647Z,80.94
2019-05-29T00:45:02.737Z,79.16
2019-05-29T00:47:30.621Z,79.42
2019-05-29T00:49:59.257Z,78.08
2019-05-29T00:52:27.055Z,77.42
2019-05-29T00:54:54.836Z,76.98
2019-05-29T00:57:22.671Z,76.45
2019-05-29T00:59:50.435Z,74.75
2019-05-29T01:02:18.308Z,74.15
2019-05-29T01:04:46.171Z,73.62
2019-05-29T01:07:14.191Z,73.23
2019-05-29T01:09:42.045Z,73.73
2019-05-29T01:12:10.804Z,73.87
2019-05-29T01:14:49.560Z,73.50
2019-05-29T01:17:08.453Z,73.66
2019-05-29T01:19:36.235Z,74.45
2019-05-29T01:22:04.159Z,74.36
2019-05-29T01:24:32.043Z,75.78
2019-05-29T01:26:59.866Z,76.54
2019-05-29T01:29:27.661Z,77.17
2019-05-29T01:31:55.463Z,77.28
2019-05-29T01:34:23.981Z,77.79
2019-05-29T01:36:51.885Z,77.80
2019-05-29T01:39:19.641Z,78.12
2019-05-29T01:41:47.437Z,78.97
2019-05-29T01:44:15.382Z,79.36
2019-05-29T01:46:43.220Z,79.65
2019-05-29T01:49:11.038Z,79.82
2019-05-29T01:51:38.882Z,80.11
2019-05-29T01:54:06.750Z,80.24
2019-05-29T01:56:34.569Z,80.51
2019-05-29T01:59:02.370Z,80.90
2019-05-29T02:01:30.191Z,80.92
2019-05-29T02:03:57.990Z,80.96
2019-05-29T02:06:25.761Z,81.21
2019-05-29T02:08:53.537Z,81.30
2019-05-29T02:11:21.351Z,81.30
2019-05-29T02:13:49.110Z,81.36
2019-05-29T02:16:16.923Z,81.52
2019-05-29T02:18:44.747Z,81.76
2019-05-29T02:21:12.547Z,81.53
2019-05-29T02:23:40.307Z,81.36
2019-05-29T02:26:08.082Z,81.23
2019-05-29T02:28:35.891Z,81.07
2019-05-29T02:31:03.822Z,80.64
2019-05-29T02:33:31.640Z,79.56
2019-05-29T02:35:59.449Z,78.59
2019-05-29T02:38:27.674Z,78.70
2019-05-29T02:40:56.948Z,79.20
2019-05-29T02:43:25.994Z,79.22
2019-05-29T02:45:55.342Z,79.43
2019-05-29T02:48:24.964Z,79.50
2019-05-29T02:50:52.946Z,79.54
2019-05-29T02:53:22.260Z,79.64
2019-05-29T02:55:50.238Z,80.07
2019-05-29T02:58:18.065Z,80.64
2019-05-29T03:00:54.094Z,80.68
2019-05-29T03:03:24.425Z,81.31
2019-05-29T03:05:54.167Z,81.24
2019-05-29T03:08:22.362Z,81.12
2019-05-29T03:10:50.736Z,81.56
2019-05-29T03:13:18.704Z,81.24
2019-05-29T03:15:46.724Z,81.06
2019-05-29T03:18:14.603Z,81.86
2019-05-29T03:20:42.374Z,81.58
2019-05-29T03:23:10.211Z,81.51
2019-05-29T03:25:38.012Z,81.10
2019-05-29T03:28:05.801Z,81.37
2019-05-29T03:30:41.255Z,81.48
2019-05-29T03:33:03.322Z,81.43
2019-05-29T03:35:38.545Z,81.34
2019-05-29T03:38:00.794Z,81.49
2019-05-29T03:40:29.446Z,81.25
2019-05-29T03:42:58.256Z,80.88
2019-05-29T03:45:26.775Z,81.03
2019-05-29T03:47:55.157Z,80.37
2019-05-29T03:50:22.976Z,80.39
2019-05-29T03:52:51.069Z,79.81
2019-05-29T03:55:18.840Z,79.08
2019-05-29T03:57:46.665Z,79.47
2019-05-29T04:00:15.352Z,79.45
2019-05-29T04:02:43.117Z,79.59
2019-05-29T04:05:10.906Z,79.44
2019-05-29T04:07:38.737Z,78.91
2019-05-29T04:10:07.072Z,78.35
2019-05-29T04:12:35.513Z,78.31
2019-05-29T04:15:04.029Z,78.36
2019-05-29T04:17:35.498Z,78.39
2019-05-29T04:20:04.545Z,78.30
2019-05-29T04:22:43.427Z,77.99
2019-05-29T04:25:13.005Z,77.11
2019-05-29T04:27:42.172Z,76.12
2019-05-29T04:30:11.745Z,74.38
2019-05-29T04:32:41.297Z,74.06
2019-05-29T04:35:09.264Z,72.87
2019-05-29T04:37:39.398Z,71.87
2019-05-29T04:40:07.481Z,71.44
2019-05-29T04:42:36.962Z,70.46
2019-05-29T04:45:05.560Z,70.58
2019-05-29T04:47:35.083Z,70.42
2019-05-29T04:50:03.219Z,69.98
2019-05-29T04:52:31.460Z,70.00
2019-05-29T04:54:59.442Z,69.17
2019-05-29T04:57:27.233Z,69.71
2019-05-29T04:59:55.045Z,69.58
2019-05-29T05:02:22.821Z,68.69
2019-05-29T05:04:50.614Z,69.36
2019-05-29T05:07:18.459Z,68.80
2019-05-29T05:09:46.261Z,67.79
2019-05-29T05:12:14.080Z,68.35
2019-05-29T05:14:41.838Z,68.14
2019-05-29T05:17:24.968Z,68.24
2019-05-29T05:19:40.142Z,67.49
2019-05-29T05:22:08.086Z,67.92
2019-05-29T05:24:36.408Z,67.83
2019-05-29T05:27:04.389Z,67.39
2019-05-29T05:29:32.211Z,68.06
2019-05-29T05:32:00.098Z,67.88
2019-05-29T05:34:27.849Z,68.00
2019-05-29T05:36:55.649Z,67.85
2019-05-29T05:39:23.779Z,68.04
2019-05-29T05:41:51.817Z,68.02
2019-05-29T05:44:19.584Z,68.28
2019-05-29T05:46:47.393Z,68.22
2019-05-29T05:49:15.158Z,67.54
2019-05-29T05:51:44.698Z,68.39
2019-05-29T05:54:12.690Z,67.74
2019-05-29T05:56:41.704Z,67.57
2019-05-29T05:59:09.707Z,66.75
2019-05-29T06:01:37.941Z,65.96
2019-05-29T06:04:05.757Z,64.88
2019-05-29T06:06:33.902Z,64.38
2019-05-29T06:09:01.933Z,63.97
2019-05-29T06:11:29.742Z,63.55
2019-05-29T06:13:57.543Z,62.23
2019-05-29T06:16:25.373Z,61.82
2019-05-29T06:18:53.200Z,61.52
2019-05-29T06:21:21.103Z,61.02
2019-05-29T06:23:48.894Z,60.92
2019-05-29T06:26:16.671Z,61.23
2019-05-29T06:28:44.479Z,60.61
2019-05-29T06:31:12.279Z,57.66
2019-05-29T06:33:40.387Z,57.22
2019-05-29T06:36:09.228Z,57.83
2019-05-29T06:38:37.643Z,58.13
2019-05-29T06:41:05.488Z,57.54
2019-05-29T06:43:33.806Z,58.21
2019-05-29T06:46:01.670Z,57.90
2019-05-29T06:48:58.790Z,58.46
2019-05-29T06:50:59.378Z,57.79
2019-05-29T06:53:27.176Z,56.64
2019-05-29T06:55:56.577Z,55.05
2019-05-29T06:58:24.724Z,53.70
2019-05-29T07:00:52.536Z,53.47
2019-05-29T07:03:20.505Z,53.44
2019-05-29T07:05:51.383Z,53.59
2019-05-29T07:08:28.971Z,54.31
2019-05-29T07:10:48.500Z,54.60
2019-05-29T07:13:16.363Z,54.66
2019-05-29T07:15:45.825Z,54.85
2019-05-29T07:18:13.886Z,55.04
2019-05-29T07:20:42.663Z,54.62
2019-05-29T07:23:10.589Z,55.58
2019-05-29T07:25:38.741Z,55.34
2019-05-29T07:28:06.660Z,54.98
2019-05-29T07:30:34.482Z,53.82
2019-05-29T07:33:02.382Z,52.70
2019-05-29T07:35:30.334Z,50.73
2019-05-29T07:37:58.299Z,47.17
2019-05-29T07:40:26.076Z,46.94
2019-05-29T07:42:56.595Z,47.71
2019-05-29T07:45:23.588Z,49.80
2019-05-29T07:47:51.405Z,50.44
2019-05-29T07:50:19.406Z,50.03
2019-05-29T07:52:48.704Z,50.95
2019-05-29T07:55:16.816Z,50.05
2019-05-29T07:57:44.882Z,47.49
2019-05-29T08:00:13.634Z,45.03
2019-05-29T08:02:41.613Z,39.39
2019-05-29T08:05:10.028Z,36.56
2019-05-29T08:07:39.281Z,33.94
2019-05-29T08:10:08.884Z,29.61
2019-05-29T08:12:41.078Z,26.65
2019-05-29T08:15:06.618Z,26.27
2019-05-29T08:17:34.535Z,25.72
2019-05-29T08:20:07.476Z,23.74
2019-05-29T08:22:34.527Z,22.16
2019-05-29T08:25:02.274Z,24.22
2019-05-29T08:27:30.040Z,24.24
2019-05-29T08:29:57.829Z,21.45
2019-05-29T08:32:25.583Z,22.99
2019-05-29T08:34:53.411Z,23.96
2019-05-29T08:37:21.210Z,23.14
2019-05-29T08:39:49.539Z,22.72
2019-05-29T08:42:23.108Z,24.76
2019-05-29T08:44:47.495Z,27.81
2019-05-29T08:47:15.381Z,24.73
2019-05-29T08:49:44.005Z,23.24
2019-05-29T08:52:12.884Z,21.56
2019-05-29T08:54:41.965Z,18.01
2019-05-29T08:57:09.904Z,17.22
2019-05-29T08:59:37.690Z,16.52
2019-05-29T09:02:05.531Z,15.74
2019-05-29T09:04:33.378Z,16.72
2019-05-29T09:07:01.224Z,17.45
2019-05-29T09:09:29.019Z,16.66
2019-05-29T09:11:56.805Z,16.14
2019-05-29T09:14:24.666Z,17.35
2019-05-29T09:16:52.552Z,15.23
2019-05-29T09:19:21.086Z,14.04
2019-05-29T09:21:49.271Z,14.74
2019-05-29T09:24:17.523Z,13.03
2019-05-29T09:26:46.629Z,11.38
2019-05-29T09:29:18.179Z,12.37
2019-05-29T09:31:44.342Z,13.66
2019-05-29T09:34:12.108Z,15.23
2019-05-29T09:36:39.920Z,15.28
2019-05-29T09:39:08.291Z,13.71
2019-05-29T09:41:36.100Z,13.90
2019-05-29T09:44:04.019Z,13.87
2019-05-29T09:46:31.943Z,11.71
2019-05-29T09:49:01.626Z,10.05
2019-05-29T09:51:29.513Z,10.14
2019-05-29T09:53:59.378Z,10.21
2019-05-29T09:56:27.103Z,9.13
2019-05-29T09:58:56.518Z,9.04
2019-05-29T10:01:25.640Z,9.21
2019-05-29T10:03:55.336Z,8.59
2019-05-29T10:06:23.495Z,7.66
2019-05-29T10:08:51.302Z,9.75
2019-05-29T10:11:19.111Z,10.04
2019-05-29T10:13:46.881Z,10.17
2019-05-29T10:16:14.689Z,9.43
2019-05-29T10:18:42.512Z,9.12
2019-05-29T10:21:10.299Z,8.63
2019-05-29T10:23:38.078Z,8.38
2019-05-29T10:26:06.549Z,8.81
2019-05-29T10:28:50.297Z,8.12
2019-05-29T10:31:05.096Z,7.86
2019-05-29T10:33:33.223Z,7.84
2019-05-29T10:36:04.027Z,9.04
2019-05-29T10:38:30.751Z,9.76
2019-05-29T10:41:06.302Z,9.95
2019-05-29T10:43:34.146Z,8.74
2019-05-29T10:45:57.977Z,8.74
2019-05-29T10:48:25.765Z,10.35
2019-05-29T10:50:54.231Z,15.17
2019-05-29T10:53:23.182Z,16.94
2019-05-29T10:55:51.014Z,14.52
2019-05-29T10:58:18.805Z,13.33
2019-05-29T11:00:47.093Z,13.18
2019-05-29T11:03:14.965Z,12.42
2019-05-29T11:05:42.840Z,10.46
2019-05-29T11:08:10.659Z,8.83
2019-05-29T11:10:38.439Z,10.77
2019-05-29T11:13:08.056Z,11.77
2019-05-29T11:15:35.859Z,10.82
2019-05-29T11:18:03.711Z,9.40
2019-05-29T11:20:31.505Z,9.25
2019-05-29T11:22:59.314Z,9.52
2019-05-29T11:25:27.883Z,9.80
2019-05-29T11:27:56.705Z,8.01
2019-05-29T11:30:24.815Z,8.14
2019-05-29T11:32:54.994Z,8.72
2019-05-29T11:35:22.285Z,8.76
2019-05-29T11:37:50.378Z,8.46
2019-05-29T11:40:18.625Z,7.43
2019-05-29T11:42:46.427Z,7.02
2019-05-29T11:45:15.524Z,6.54
2019-05-29T11:47:43.338Z,7.05
2019-05-29T11:50:19.312Z,7.79
2019-05-29T11:52:43.540Z,9.66
2019-05-29T11:55:12.416Z,11.54
2019-05-29T11:57:40.181Z,12.28
2019-05-29T12:00:19.098Z,11.32
2019-05-29T12:02:39.104Z,9.93
2019-05-29T12:05:08.013Z,8.20
2019-05-29T12:07:35.808Z,7.53
2019-05-29T12:10:06.211Z,7.38
2019-05-29T12:12:34.369Z,8.22
2019-05-29T12:15:12.111Z,8.64
2019-05-29T12:17:31.906Z,7.00
2019-05-29T12:20:03.993Z,6.97
2019-05-29T12:22:31.297Z,7.14
2019-05-29T12:25:00.275Z,8.51
2019-05-29T12:27:28.550Z,8.96
2019-05-29T12:29:56.679Z,7.85
2019-05-29T12:32:24.584Z,6.97
2019-05-29T12:34:55.040Z,7.25
2019-05-29T12:37:22.083Z,6.88
2019-05-29T12:39:49.860Z,6.86
2019-05-29T12:42:17.664Z,6.06
2019-05-29T12:44:45.463Z,5.96
2019-05-29T12:47:13.305Z,7.32
2019-05-29T12:49:41.145Z,8.52
2019-05-29T12:52:09.869Z,7.82
2019-05-29T12:54:38.086Z,7.00
2019-05-29T12:57:05.993Z,7.50
2019-05-29T12:59:33.786Z,7.47
2019-05-29T13:02:02.695Z,8.46
2019-05-29T13:04:30.641Z,10.53
2019-05-29T13:06:58.671Z,14.25
2019-05-29T13:09:26.653Z,16.80
2019-05-29T13:11:54.455Z,19.65
2019-05-29T13:14:22.382Z,21.84
2019-05-29T13:16:50.125Z,21.32
2019-05-29T13:19:17.971Z,23.21
2019-05-29T13:21:45.768Z,25.20
2019-05-29T13:24:13.588Z,25.72
2019-05-29T13:26:41.411Z,26.58
2019-05-29T13:29:09.289Z,26.92
2019-05-29T13:31:37.142Z,23.22
2019-05-29T13:34:05.013Z,21.07
2019-05-29T13:36:32.829Z,18.93
2019-05-29T13:39:00.620Z,17.84
2019-05-29T13:41:28.458Z,16.65
2019-05-29T13:43:56.506Z,19.04
2019-05-29T13:46:24.373Z,20.75
2019-05-29T13:48:52.316Z,22.37
2019-05-29T13:51:20.147Z,23.15
2019-05-29T13:54:02.007Z,24.79
2019-05-29T13:56:17.717Z,25.60
2019-05-29T13:58:45.523Z,25.49
2019-05-29T14:01:13.331Z,25.33
2019-05-29T14:03:41.160Z,25.52
2019-05-29T14:06:09.544Z,26.47
2019-05-29T14:08:37.483Z,27.05
2019-05-29T14:11:05.322Z,26.31
2019-05-29T14:13:33.098Z,27.05
2019-05-29T14:16:02.276Z,28.20
2019-05-29T14:18:30.301Z,29.29
2019-05-29T14:20:58.104Z,29.38
2019-05-29T14:23:25.881Z,29.83
2019-05-29T14:25:53.673Z,29.65
2019-05-29T14:28:21.481Z,30.14
2019-05-29T14:30:49.551Z,30.02
2019-05-29T14:33:17.377Z,29.68
2019-05-29T14:35:45.251Z,28.72
2019-05-29T14:38:15.079Z,28.67
2019-05-29T14:40:42.753Z,28.61
2019-05-29T14:43:13.694Z,29.24
2019-05-29T14:45:40.390Z,28.79
2019-05-29T14:48:08.288Z,28.82
2019-05-29T14:50:36.159Z,28.05
2019-05-29T14:53:05.019Z,28.66
2019-05-29T14:55:32.997Z,29.12
2019-05-29T14:58:00.821Z,29.62
2019-05-29T15:00:28.698Z,29.58
2019-05-29T15:02:56.528Z,29.97
2019-05-29T15:05:24.357Z,29.21
2019-05-29T15:07:52.134Z,29.60
2019-05-29T15:10:26.698Z,29.19
2019-05-29T15:12:49.765Z,28.60
2019-05-29T15:15:19.998Z,28.77
2019-05-29T15:17:47.808Z,28.84
2019-05-29T15:20:16.771Z,28.95
2019-05-29T15:22:45.044Z,28.63
2019-05-29T15:25:21.008Z,28.03
2019-05-29T15:27:43.249Z,28.21
2019-05-29T15:30:16.140Z,28.67
2019-05-29T15:32:41.485Z,28.83
2019-05-29T15:35:13.769Z,29.04
2019-05-29T15:37:39.452Z,28.93
2019-05-29T15:40:08.795Z,29.07
2019-05-29T15:42:37.220Z,29.17
2019-05-29T15:45:05.903Z,28.96
2019-05-29T15:47:33.720Z,29.02
2019-05-29T15:50:01.475Z,28.89
2019-05-29T15:52:29.295Z,29.37
2019-05-29T15:54:57.074Z,30.08
2019-05-29T15:57:24.923Z,30.56
2019-05-29T15:59:52.806Z,30.96
2019-05-29T16:02:20.666Z,31.58
2019-05-29T16:04:48.508Z,31.63
2019-05-29T16:07:16.333Z,32.10
2019-05-29T16:09:44.136Z,32.12
2019-05-29T16:12:12.728Z,32.33
2019-05-29T16:14:40.645Z,32.12
2019-05-29T16:17:09.002Z,32.15
2019-05-29T16:19:36.970Z,32.14
2019-05-29T16:22:04.783Z,32.06
2019-05-29T16:24:32.553Z,31.85
2019-05-29T16:27:08.208Z,31.46
2019-05-29T16:29:30.086Z,31.48
2019-05-29T16:31:57.898Z,31.08
2019-05-29T16:34:25.840Z,30.68
2019-05-29T16:36:53.670Z,30.12
2019-05-29T16:39:22.708Z,29.99
2019-05-29T16:41:50.669Z,30.08
2019-05-29T16:44:18.469Z,30.55
2019-05-29T16:46:46.275Z,30.75
2019-05-29T16:49:14.456Z,30.79
2019-05-29T16:51:42.403Z,30.75
2019-05-29T16:54:10.226Z,31.03
2019-05-29T16:56:38.043Z,31.24
2019-05-29T16:59:05.833Z,32.05
2019-05-29T17:01:33.619Z,31.98
2019-05-29T17:04:01.430Z,32.40
2019-05-29T17:06:29.208Z,32.75
2019-05-29T17:08:57.390Z,32.81
2019-05-29T17:11:25.288Z,32.17
2019-05-29T17:13:53.047Z,31.91
2019-05-29T17:16:20.963Z,32.35
2019-05-29T17:18:49.199Z,32.69
2019-05-29T17:21:18.385Z,32.26
2019-05-29T17:23:47.080Z,32.45
2019-05-29T17:26:14.972Z,32.07
2019-05-29T17:28:42.760Z,31.85
2019-05-29T17:31:10.629Z,31.92
2019-05-29T17:33:38.464Z,31.97
2019-05-29T17:36:06.282Z,32.32
2019-05-29T17:38:34.115Z,32.79
2019-05-29T17:41:01.934Z,32.87
2019-05-29T17:43:29.758Z,32.95
2019-05-29T17:45:57.597Z,33.29
2019-05-29T17:48:25.902Z,33.28
2019-05-29T17:50:53.925Z,33.39
2019-05-29T17:53:22.483Z,32.72
2019-05-29T17:55:50.507Z,32.98
2019-05-29T17:58:18.678Z,32.82
2019-05-29T18:00:47.270Z,32.95
2019-05-29T18:03:16.063Z,33.12
2019-05-29T18:05:44.031Z,33.38
2019-05-29T18:08:11.881Z,33.56
2019-05-29T18:10:39.811Z,33.78
2019-05-29T18:13:07.698Z,33.80
2019-05-29T18:15:35.529Z,33.99
2019-05-29T18:18:03.680Z,34.39
2019-05-29T18:20:31.498Z,34.48
2019-05-29T18:22:59.325Z,34.50
2019-05-29T18:25:28.100Z,35.02
2019-05-29T18:27:56.067Z,35.24
2019-05-29T18:30:26.369Z,35.12
2019-05-29T18:32:54.370Z,35.23
2019-05-29T18:35:22.908Z,35.57
2019-05-29T18:37:50.781Z,35.77
2019-05-29T18:40:22.374Z,36.01
2019-05-29T18:42:50.347Z,36.19
2019-05-29T18:45:21.531Z,36.56
2019-05-29T18:47:49.162Z,36.42
2019-05-29T18:50:17.292Z,36.46
2019-05-29T18:52:45.070Z,36.76
2019-05-29T18:55:13.031Z,36.85
2019-05-29T18:57:40.899Z,37.05
2019-05-29T19:00:09.554Z,37.51
2019-05-29T19:02:37.429Z,37.80
2019-05-29T19:05:06.067Z,37.93
2019-05-29T19:07:33.978Z,38.24
2019-05-29T19:10:01.923Z,38.43
2019-05-29T19:12:30.114Z,38.80
2019-05-29T19:14:57.977Z,38.95
2019-05-29T19:17:25.978Z,39.15
2019-05-29T19:19:53.868Z,39.20
2019-05-29T19:22:22.273Z,39.51
2019-05-29T19:24:50.165Z,39.61
2019-05-29T19:27:32.085Z,39.87
2019-05-29T19:29:47.745Z,40.19
2019-05-29T19:32:15.566Z,40.36
2019-05-29T19:34:43.370Z,40.62
2019-05-29T19:37:11.187Z,40.75
2019-05-29T19:39:38.989Z,40.80
2019-05-29T19:42:06.834Z,41.02
2019-05-29T19:44:34.715Z,41.20
2019-05-29T19:47:02.608Z,41.71
2019-05-29T19:49:30.902Z,41.47
2019-05-29T19:51:58.918Z,41.67
2019-05-29T19:54:27.443Z,41.85
2019-05-29T19:56:55.419Z,42.25
2019-05-29T19:59:23.253Z,42.34
2019-05-29T20:01:51.080Z,42.69
2019-05-29T20:04:18.944Z,42.66
2019-05-29T20:06:46.818Z,42.88
2019-05-29T20:09:14.620Z,43.41
2019-05-29T20:11:42.480Z,43.26
2019-05-29T20:14:10.287Z,43.22
2019-05-29T20:16:39.257Z,43.44
2019-05-29T20:19:07.248Z,43.82
2019-05-29T20:21:35.074Z,44.08
2019-05-29T20:24:03.262Z,44.35
2019-05-29T20:26:31.055Z,44.70
2019-05-29T20:28:58.871Z,44.81
2019-05-29T20:31:26.682Z,45.62
2019-05-29T20:33:54.577Z,45.59
2019-05-29T20:36:22.398Z,45.71
2019-05-29T20:38:50.232Z,46.06
2019-05-29T20:41:18.030Z,46.24
2019-05-29T20:43:45.831Z,46.39
2019-05-29T20:46:13.684Z,46.86
2019-05-29T20:48:42.753Z,47.09
2019-05-29T20:51:10.794Z,46.97
2019-05-29T20:53:40.294Z,47.03
2019-05-29T20:56:08.374Z,47.30
2019-05-29T20:58:36.177Z,47.66
2019-05-29T21:01:04.098Z,47.95
2019-05-29T21:03:32.274Z,48.29
2019-05-29T21:06:00.156Z,48.68
2019-05-29T21:08:27.946Z,49.14
2019-05-29T21:10:55.819Z,49.67
2019-05-29T21:13:23.893Z,49.85
2019-05-29T21:15:51.699Z,50.07
2019-05-29T21:18:20.333Z,50.38
2019-05-29T21:20:48.119Z,50.61
2019-05-29T21:23:15.972Z,50.92
2019-05-29T21:25:44.865Z,50.97
2019-05-29T21:28:12.764Z,51.00
2019-05-29T21:30:41.761Z,51.84
2019-05-29T21:33:09.668Z,51.69
2019-05-29T21:35:38.010Z,52.13
2019-05-29T21:38:05.893Z,52.29
2019-05-29T21:40:33.772Z,52.60
2019-05-29T21:43:01.632Z,53.14
2019-05-29T21:45:29.462Z,53.44
2019-05-29T21:47:57.294Z,53.75
2019-05-29T21:50:25.134Z,52.18
2019-05-29T21:52:54.774Z,52.13
2019-05-29T21:55:22.611Z,52.14
2019-05-29T21:57:50.507Z,54.52
2019-05-29T22:00:30.333Z,54.62
2019-05-29T22:02:58.248Z,54.69
2019-05-29T22:05:26.067Z,54.97
2019-05-29T22:07:54.025Z,55.36
2019-05-29T22:10:21.978Z,55.28
2019-05-29T22:12:50.326Z,53.54
2019-05-29T22:15:18.274Z,52.06
2019-05-29T22:17:47.153Z,51.88
2019-05-29T22:20:14.946Z,54.30
2019-05-29T22:22:42.784Z,54.44
2019-05-29T22:25:10.733Z,55.99
2019-05-29T22:27:38.553Z,55.46
2019-05-29T22:30:08.260Z,56.55
2019-05-29T22:32:36.027Z,56.70
2019-05-29T22:35:04.039Z,56.28
2019-05-29T22:37:31.783Z,56.42
2019-05-29T22:39:59.699Z,56.64
2019-05-29T22:42:27.496Z,57.04
2019-05-29T22:44:55.676Z,56.75
2019-05-29T22:47:23.502Z,56.78
2019-05-29T22:49:51.678Z,56.85
2019-05-29T22:52:19.543Z,57.06
2019-05-29T22:54:47.369Z,57.14
2019-05-29T22:57:15.145Z,57.67
2019-05-29T22:59:42.933Z,58.06
2019-05-29T23:02:10.825Z,58.07
2019-05-29T23:04:38.751Z,58.28
2019-05-29T23:07:06.544Z,58.20
2019-05-29T23:09:34.332Z,58.43
2019-05-29T23:12:02.523Z,58.35
2019-05-29T23:14:30.415Z,58.52
2019-05-29T23:16:58.616Z,58.72
2019-05-29T23:19:26.442Z,59.18
2019-05-29T23:21:54.422Z,59.25
2019-05-29T23:24:22.283Z,59.46
2019-05-29T23:26:50.128Z,59.86
2019-05-29T23:29:17.967Z,60.16
2019-05-29T23:31:45.850Z,60.30
2019-05-29T23:34:13.611Z,60.88
2019-05-29T23:36:41.401Z,61.41
2019-05-29T23:39:09.200Z,62.03
2019-05-29T23:41:37.028Z,62.54
2019-05-29T23:44:04.861Z,62.83
2019-05-29T23:46:32.729Z,63.24
2019-05-29T23:49:01.788Z,63.52
2019-05-29T23:51:29.724Z,63.63
2019-05-29T23:53:57.750Z,63.98
2019-05-29T23:56:25.561Z,63.92
2019-05-29T23:58:53.656Z,64.44
